Time;durP1;ratioP1;P1;durP2;ratioP2;P2;SDS_P1;SDS_P2;PMS_P1;PMS_P2;Temp;Humidity;BMP_temperature;BMP_pressure;BME280_temperature;BME280_humidity;BME280_pressure;Samples;Min_cycle;Max_cycle;Signal;HPM_P1;HPM_P2
2021/12/02 00:01:18;;;;;;;7.50;2.13;;;;;;;;;;5030934;28;20097;-83
2021/12/02 00:03:45;;;;;;;5.72;2.33;;;;;;;;;;5020877;28;20120;-83
2021/12/02 00:06:12;;;;;;;7.25;2.05;;;;;;;;;;5030283;28;20553;-83
2021/12/02 00:08:39;;;;;;;1.95;1.30;;;;;;;;;;5014373;28;20042;-84
2021/12/02 00:11:05;;;;;;;4.63;1.95;;;;;;;;;;5014417;28;20038;-83
2021/12/02 00:13:42;;;;;;;5.72;2.08;;;;;;;;;;5018963;28;20045;-83
2021/12/02 00:21:15;;;;;;;1.95;1.50;;;;;;;;;;5017239;28;20084;-83
2021/12/02 00:23:50;;;;;;;5.97;1.73;;;;;;;;;;5018289;28;20034;-83
2021/12/02 00:26:18;;;;;;;2.72;1.58;;;;;;;;;;5018339;28;20038;-83
2021/12/02 00:28:44;;;;;;;4.20;1.50;;;;;;;;;;5017918;28;20042;-82
2021/12/02 00:31:18;;;;;;;3.50;1.90;;;;;;;;;;5027340;28;20125;-83
2021/12/02 00:33:51;;;;;;;7.07;1.35;;;;;;;;;;5016402;28;20121;-83
2021/12/02 00:36:18;;;;;;;5.63;2.50;;;;;;;;;;5019268;28;20037;-83
2021/12/02 00:38:46;;;;;;;2.47;1.45;;;;;;;;;;5014747;28;20041;-82
2021/12/02 00:41:14;;;;;;;3.13;1.90;;;;;;;;;;5018685;28;20042;-83
2021/12/02 00:43:40;;;;;;;4.65;1.73;;;;;;;;;;5033511;28;20046;-83
2021/12/02 00:46:08;;;;;;;2.70;1.30;;;;;;;;;;5022627;28;20116;-83
2021/12/02 00:48:35;;;;;;;7.00;1.88;;;;;;;;;;5014843;28;20065;-83
2021/12/02 00:51:02;;;;;;;3.72;1.40;;;;;;;;;;5016806;28;21151;-83
2021/12/02 00:53:28;;;;;;;2.65;1.10;;;;;;;;;;5033895;28;20041;-83
2021/12/02 00:55:55;;;;;;;4.15;1.38;;;;;;;;;;5038313;28;20045;-83
2021/12/02 00:58:23;;;;;;;1.35;1.00;;;;;;;;;;5018096;28;20069;-83
2021/12/02 01:00:51;;;;;;;1.75;1.00;;;;;;;;;;5036623;28;20038;-83
2021/12/02 01:03:18;;;;;;;3.80;1.13;;;;;;;;;;5016507;28;21187;-83
2021/12/02 01:05:44;;;;;;;3.20;1.10;;;;;;;;;;5018407;28;20079;-83
2021/12/02 01:08:11;;;;;;;1.35;1.20;;;;;;;;;;5021605;28;20049;-83
2021/12/02 01:10:37;;;;;;;2.88;0.80;;;;;;;;;;5023198;28;20045;-83
2021/12/02 01:13:03;;;;;;;1.15;0.85;;;;;;;;;;5021821;28;20099;-82
2021/12/02 01:15:29;;;;;;;1.02;0.90;;;;;;;;;;5036980;28;20128;-83
2021/12/02 01:17:55;;;;;;;1.75;1.27;;;;;;;;;;5017760;28;20052;-83
2021/12/02 01:20:21;;;;;;;1.55;0.77;;;;;;;;;;5019665;28;20050;-83
2021/12/02 01:22:49;;;;;;;0.60;0.50;;;;;;;;;;5030262;28;20069;-83
2021/12/02 01:25:17;;;;;;;6.90;0.82;;;;;;;;;;5026022;28;20045;-83
2021/12/02 01:27:44;;;;;;;0.65;0.57;;;;;;;;;;5017294;28;20038;-84
2021/12/02 01:30:10;;;;;;;3.70;0.98;;;;;;;;;;5020047;28;20444;-84
2021/12/02 01:32:38;;;;;;;1.20;0.50;;;;;;;;;;5015762;28;20052;-84
2021/12/02 01:35:04;;;;;;;6.45;0.85;;;;;;;;;;5043378;28;20133;-84
2021/12/02 01:37:31;;;;;;;2.67;0.65;;;;;;;;;;5019487;28;20538;-84
2021/12/02 01:39:58;;;;;;;1.23;0.40;;;;;;;;;;5016034;28;20089;-84
2021/12/02 01:42:27;;;;;;;1.90;0.70;;;;;;;;;;5018835;28;20042;-84
2021/12/02 01:44:54;;;;;;;3.67;0.57;;;;;;;;;;5018098;28;20042;-83
2021/12/02 01:47:22;;;;;;;5.03;1.02;;;;;;;;;;5019157;28;20052;-84
2021/12/02 01:49:51;;;;;;;0.85;0.40;;;;;;;;;;5021325;28;20045;-84
2021/12/02 01:52:20;;;;;;;2.70;0.38;;;;;;;;;;5023619;28;20076;-83
2021/12/02 01:54:48;;;;;;;0.90;0.50;;;;;;;;;;5021477;28;20137;-84
2021/12/02 01:57:29;;;;;;;0.38;0.38;;;;;;;;;;5021858;28;20042;-83
2021/12/02 02:00:05;;;;;;;2.03;0.73;;;;;;;;;;5018568;28;20565;-83
2021/12/02 02:02:35;;;;;;;0.80;0.80;;;;;;;;;;5017397;28;20217;-84
2021/12/02 02:05:01;;;;;;;0.50;0.50;;;;;;;;;;5021867;28;20508;-84
2021/12/02 02:07:29;;;;;;;0.57;0.50;;;;;;;;;;5022976;28;20110;-83
2021/12/02 02:09:55;;;;;;;3.35;0.68;;;;;;;;;;5025290;28;20045;-84
2021/12/02 02:12:22;;;;;;;1.15;0.70;;;;;;;;;;5038294;28;20049;-83
2021/12/02 02:14:49;;;;;;;1.52;0.52;;;;;;;;;;5033057;28;20046;-83
2021/12/02 02:17:24;;;;;;;0.75;0.43;;;;;;;;;;5017372;28;20125;-84
2021/12/02 02:19:51;;;;;;;1.05;0.68;;;;;;;;;;5017045;28;20053;-83
2021/12/02 02:22:21;;;;;;;2.85;0.50;;;;;;;;;;5017950;28;20076;-84
2021/12/02 02:24:47;;;;;;;0.20;0.20;;;8.30;99.90;;;;;;5028328;28;20056;-83
2021/12/02 02:27:13;;;;;;;0.85;0.55;;;6.90;99.90;;;;;;5016925;28;20586;-83
2021/12/02 02:29:39;;;;;;;0.63;0.47;;;6.80;99.90;;;;;;5030936;28;20037;-83
2021/12/02 02:32:05;;;;;;;1.67;0.65;;;6.80;99.90;;;;;;5047417;28;20562;-83
2021/12/02 02:34:31;;;;;;;0.57;0.50;;;6.70;99.90;;;;;;5012477;28;20054;-83
2021/12/02 02:37:01;;;;;;;0.68;0.30;;;6.70;99.90;;;;;;5012128;28;20479;-83
2021/12/02 02:39:28;;;;;;;1.20;0.75;;;6.80;99.90;;;;;;5018129;28;20053;-84
2021/12/02 02:42:04;;;;;;;0.95;0.70;;;6.70;99.90;;;;;;5019211;28;20038;-84
2021/12/02 02:44:32;;;;;;;1.27;0.70;;;6.70;99.90;;;;;;5021296;28;20068;-83
2021/12/02 02:46:59;;;;;;;1.08;0.70;;;6.70;99.90;;;;;;5016602;28;20053;-84
2021/12/02 02:49:24;;;;;;;0.75;0.60;;;6.70;99.90;;;;;;5017832;28;20071;-84
2021/12/02 02:51:51;;;;;;;6.15;0.75;;;6.70;99.90;;;;;;5037820;28;20639;-84
2021/12/02 02:54:17;;;;;;;1.52;1.00;;;6.70;99.90;;;;;;5013648;28;20095;-84
2021/12/02 02:56:53;;;;;;;1.27;0.70;;;6.70;99.90;;;;;;5008927;28;20073;-84
2021/12/02 03:04:47;;;;;;;2.10;0.90;;;6.70;99.90;;;;;;5016880;28;20076;-84
2021/12/02 03:12:40;;;;;;;1.42;1.00;;;6.70;99.90;;;;;;5021335;28;20759;-84
2021/12/02 03:17:33;;;;;;;1.75;1.02;;;6.70;99.90;;;;;;5012022;28;20046;-85
2021/12/02 03:19:59;;;;;;;0.35;0.35;;;6.70;99.90;;;;;;5013322;28;20042;-84
2021/12/02 03:22:26;;;;;;;2.25;0.90;;;6.60;99.90;;;;;;5021115;28;20081;-84
2021/12/02 03:24:52;;;;;;;2.38;0.68;;;6.70;99.90;;;;;;5013507;28;20038;-84
2021/12/02 03:27:17;;;;;;;3.63;0.93;;;6.70;99.90;;;;;;5013906;28;20049;-84
2021/12/02 03:29:43;;;;;;;3.95;0.70;;;6.70;99.90;;;;;;5032242;28;20456;-84
2021/12/02 03:32:09;;;;;;;1.38;1.08;;;6.80;99.90;;;;;;5017921;28;20064;-83
2021/12/02 03:34:36;;;;;;;1.70;1.20;;;6.70;99.90;;;;;;5040024;28;20046;-83
2021/12/02 03:37:03;;;;;;;3.80;1.20;;;6.70;99.90;;;;;;5011345;28;20037;-84
2021/12/02 03:39:28;;;;;;;1.75;0.90;;;6.70;99.90;;;;;;5016244;28;20133;-84
2021/12/02 03:41:55;;;;;;;1.20;0.63;;;6.70;99.90;;;;;;5014161;28;20034;-84
2021/12/02 03:44:22;;;;;;;4.38;1.45;;;7.00;99.90;;;;;;5012748;28;20048;-84
2021/12/02 03:46:51;;;;;;;8.40;3.17;;;6.70;99.90;;;;;;5026094;28;20049;-84
2021/12/02 03:49:17;;;;;;;5.72;2.15;;;6.70;99.90;;;;;;5016043;28;20041;-84
2021/12/02 03:51:43;;;;;;;7.20;3.30;;;6.80;99.90;;;;;;5029968;28;20045;-84
2021/12/02 03:54:09;;;;;;;3.72;1.80;;;6.80;99.90;;;;;;5014286;28;20092;-84
2021/12/02 03:56:36;;;;;;;2.83;1.58;;;6.70;99.90;;;;;;5031557;28;20054;-84
2021/12/02 03:59:02;;;;;;;8.00;2.60;;;6.70;99.90;;;;;;5018632;28;20060;-84
2021/12/02 04:01:28;;;;;;;7.13;2.50;;;6.60;99.90;;;;;;5010757;28;20041;-84
2021/12/02 04:03:53;;;;;;;5.30;1.88;;;6.50;99.90;;;;;;5014777;28;20946;-85
2021/12/02 04:06:20;;;;;;;3.42;2.38;;;6.60;99.90;;;;;;5026695;28;20424;-85
2021/12/02 04:11:40;;;;;;;4.70;3.08;;;6.30;99.90;;;;;;5011189;28;20046;-83
2021/12/02 04:14:13;;;;;;;8.63;1.77;;;6.20;99.90;;;;;;5017253;28;20054;-84
2021/12/02 04:16:40;;;;;;;6.90;1.35;;;6.10;99.90;;;;;;5013423;28;20081;-84
2021/12/02 04:19:08;;;;;;;2.08;0.90;;;6.00;99.90;;;;;;5030803;28;20049;-84
2021/12/02 04:21:34;;;;;;;1.38;1.00;;;5.90;99.90;;;;;;5036833;28;20096;-84
2021/12/02 04:24:01;;;;;;;3.08;1.30;;;6.00;99.90;;;;;;5017369;28;20166;-83
2021/12/02 04:26:27;;;;;;;3.00;1.35;;;5.80;99.90;;;;;;5016119;28;20523;-84
2021/12/02 04:28:53;;;;;;;0.88;0.88;;;5.90;99.90;;;;;;5018250;28;20533;-83
2021/12/02 04:31:19;;;;;;;2.08;1.13;;;5.70;99.90;;;;;;5033738;28;20053;-83
2021/12/02 04:33:46;;;;;;;2.67;1.42;;;5.70;99.90;;;;;;5054091;28;20125;-84
2021/12/02 04:36:11;;;;;;;2.65;0.93;;;5.70;99.90;;;;;;5011444;28;20070;-83
2021/12/02 04:38:38;;;;;;;1.75;1.20;;;5.60;99.90;;;;;;5024891;28;20121;-84
2021/12/02 04:41:04;;;;;;;0.43;0.43;;;5.50;99.90;;;;;;5024266;28;20041;-83
2021/12/02 04:43:30;;;;;;;5.78;0.88;;;5.70;99.90;;;;;;5032464;28;20045;-91
2021/12/02 04:45:56;;;;;;;0.30;0.30;;;5.50;99.90;;;;;;5021515;28;20050;-92
2021/12/02 04:48:22;;;;;;;2.72;1.33;;;5.50;99.90;;;;;;5042014;28;20038;-91
2021/12/02 04:50:48;;;;;;;4.40;0.82;;;5.50;99.90;;;;;;5024157;28;20083;-92
2021/12/02 04:53:16;;;;;;;2.45;0.93;;;5.40;99.90;;;;;;5025924;28;20515;-90
2021/12/02 04:55:41;;;;;;;2.35;1.25;;;5.40;99.90;;;;;;5020844;28;20129;-90
2021/12/02 04:58:08;;;;;;;2.47;1.40;;;5.40;99.90;;;;;;5029642;28;20172;-91
2021/12/02 05:00:33;;;;;;;4.30;1.13;;;5.40;99.90;;;;;;5036915;28;20053;-91
2021/12/02 05:03:00;;;;;;;1.50;0.55;;;5.30;99.90;;;;;;5038218;28;20046;-91
2021/12/02 05:05:26;;;;;;;1.48;1.23;;;5.30;99.90;;;;;;5028390;28;20057;-91
2021/12/02 05:07:55;;;;;;;2.17;0.82;;;5.30;99.90;;;;;;5032720;28;20041;-91
2021/12/02 05:10:22;;;;;;;4.50;2.38;;;5.20;99.90;;;;;;5057053;28;20052;-91
2021/12/02 05:12:48;;;;;;;0.75;0.75;;;5.20;99.90;;;;;;5021678;28;20039;-91
2021/12/02 05:15:15;;;;;;;4.57;0.88;;;5.20;99.90;;;;;;5048869;28;20052;-91
2021/12/02 05:17:40;;;;;;;1.67;0.60;;;5.20;99.90;;;;;;5027001;28;20125;-91
2021/12/02 05:20:07;;;;;;;1.20;0.93;;;5.10;99.90;;;;;;5025960;28;20483;-91
2021/12/02 05:22:33;;;;;;;2.00;0.95;;;5.10;99.90;;;;;;5028026;28;20129;-90
2021/12/02 05:25:00;;;;;;;0.65;0.65;;;5.10;99.90;;;;;;5036062;28;20100;-92
2021/12/02 05:27:26;;;;;;;1.52;0.82;;;5.10;99.90;;;;;;5072538;28;20108;-92
2021/12/02 05:29:52;;;;;;;0.43;0.43;;;5.10;99.90;;;;;;5059857;28;20037;-91
2021/12/02 05:32:18;;;;;;;0.60;0.60;;;5.20;99.90;;;;;;5046858;28;20038;-92
2021/12/02 05:34:48;;;;;;;2.10;1.42;;;5.10;99.90;;;;;;5050005;28;20100;-91
2021/12/02 05:37:41;;;;;;;1.33;0.63;;;5.00;99.90;;;;;;5053046;28;20050;-91
2021/12/02 05:40:07;;;;;;;4.07;1.10;;;5.00;99.90;;;;;;5048266;28;20069;-89
2021/12/02 05:42:41;;;;;;;4.68;1.55;;;5.00;99.90;;;;;;5071611;28;20037;-90
2021/12/02 05:45:07;;;;;;;0.40;0.40;;;5.00;99.90;;;;;;5046137;28;20062;-91
2021/12/02 05:47:41;;;;;;;2.80;1.05;;;4.90;99.90;;;;;;5027362;28;20034;-91
2021/12/02 05:50:07;;;;;;;1.42;0.98;;;4.90;99.90;;;;;;5027885;28;20136;-90
2021/12/02 05:52:40;;;;;;;0.20;0.20;;;4.90;99.90;;;;;;5030906;28;20048;-91
2021/12/02 05:55:07;;;;;;;9.23;1.33;;;4.90;99.90;;;;;;5022455;28;20065;-90
2021/12/02 05:57:33;;;;;;;9.30;1.55;;;4.90;99.90;;;;;;5029202;28;20072;-90
2021/12/02 05:59:59;;;;;;;1.02;1.00;;;4.90;99.90;;;;;;5041054;28;20078;-90
2021/12/02 06:02:27;;;;;;;5.28;1.40;;;4.90;99.90;;;;;;5032058;28;20038;-90
2021/12/02 06:04:56;;;;;;;2.92;1.00;;;4.90;99.90;;;;;;5024912;28;20156;-90
2021/12/02 06:07:22;;;;;;;0.52;0.52;;;4.90;99.90;;;;;;5030507;28;20057;-90
2021/12/02 06:09:52;;;;;;;0.77;0.73;;;4.80;99.90;;;;;;5043696;28;20544;-90
2021/12/02 06:12:18;;;;;;;1.65;1.25;;;4.80;99.90;;;;;;5029861;28;20045;-89
2021/12/02 06:14:44;;;;;;;6.50;0.82;;;4.80;99.90;;;;;;5029235;28;20041;-90
2021/12/02 06:17:10;;;;;;;0.95;0.50;;;4.70;99.90;;;;;;5021774;28;20037;-90
2021/12/02 06:19:38;;;;;;;3.53;0.93;;;4.90;99.90;;;;;;5030679;28;20049;-90
2021/12/02 06:22:04;;;;;;;5.43;0.73;;;5.00;99.90;;;;;;5042363;28;20053;-91
2021/12/02 06:24:41;;;;;;;0.52;0.43;;;5.10;99.90;;;;;;5026142;28;20042;-91
2021/12/02 06:27:07;;;;;;;5.43;1.88;;;4.70;99.90;;;;;;5033543;28;20045;-91
2021/12/02 06:29:33;;;;;;;0.70;0.70;;;4.70;99.90;;;;;;5030433;28;20050;-90
2021/12/02 06:32:04;;;;;;;3.70;0.70;;;4.70;99.90;;;;;;5046009;28;20034;-91
2021/12/02 06:34:30;;;;;;;9.57;4.47;;;4.70;99.90;;;;;;5031000;28;20045;-91
2021/12/02 06:36:56;;;;;;;11.23;5.35;;;4.60;99.90;;;;;;5049937;28;20049;-90
2021/12/02 06:39:22;;;;;;;4.63;2.92;;;4.60;99.90;;;;;;5021582;28;20508;-90
2021/12/02 06:41:48;;;;;;;1.40;1.30;;;4.50;99.90;;;;;;5025189;28;20050;-91
2021/12/02 06:44:14;;;;;;;3.90;2.22;;;4.50;99.90;;;;;;5026349;28;20127;-91
2021/12/02 06:46:40;;;;;;;1.88;1.35;;;4.50;99.90;;;;;;5048589;28;20069;-93
2021/12/02 06:49:06;;;;;;;4.68;1.30;;;4.50;99.90;;;;;;5035110;28;20052;-93
2021/12/02 06:51:32;;;;;;;2.20;1.23;;;4.50;99.90;;;;;;5031574;28;20068;-93
2021/12/02 06:54:04;;;;;;;0.82;0.82;;;4.50;99.90;;;;;;5029609;28;20076;-93
2021/12/02 06:56:30;;;;;;;3.22;1.05;;;4.50;99.90;;;;;;5024454;28;20069;-93
2021/12/02 06:58:56;;;;;;;0.65;0.65;;;4.60;99.90;;;;;;5021642;28;20088;-93
2021/12/02 07:01:22;;;;;;;7.38;1.40;;;4.70;99.90;;;;;;5032193;28;20105;-93
2021/12/02 07:03:48;;;;;;;3.03;1.45;;;4.50;99.90;;;;;;5032453;28;20057;-93
2021/12/02 07:06:26;;;;;;;0.63;0.63;;;4.50;99.90;;;;;;5029405;28;20116;-93
2021/12/02 07:08:52;;;;;;;1.73;1.00;;;4.50;99.90;;;;;;5042543;28;20058;-90
2021/12/02 07:11:19;;;;;;;5.70;1.25;;;4.50;99.90;;;;;;5037160;28;20060;-92
2021/12/02 07:13:47;;;;;;;1.60;1.02;;;4.40;99.90;;;;;;5024166;28;20054;-93
2021/12/02 07:16:13;;;;;;;0.65;0.57;;;4.40;99.90;;;;;;5022369;28;20152;-90
2021/12/02 07:18:42;;;;;;;3.35;0.95;;;4.60;99.90;;;;;;5027260;28;20052;-93
2021/12/02 07:21:08;;;;;;;1.27;1.10;;;4.40;99.90;;;;;;5026912;28;20051;-93
2021/12/02 07:23:37;;;;;;;1.35;0.85;;;4.40;99.90;;;;;;5065088;28;20046;-92
2021/12/02 07:26:02;;;;;;;1.88;1.77;;;4.80;99.90;;;;;;5029014;28;20066;-93
2021/12/02 07:28:31;;;;;;;4.38;1.27;;;4.40;99.90;;;;;;5033260;28;20125;-92
2021/12/02 07:30:57;;;;;;;2.03;0.70;;;4.30;99.90;;;;;;5034093;28;20049;-91
2021/12/02 07:33:28;;;;;;;2.90;1.17;;;4.30;99.90;;;;;;5026321;28;20550;-93
2021/12/02 07:35:54;;;;;;;1.25;1.25;;;4.30;99.90;;;;;;5046004;28;20050;-93
2021/12/02 07:38:21;;;;;;;5.25;1.58;;;4.40;99.90;;;;;;5062188;28;20380;-93
2021/12/02 07:40:47;;;;;;;8.55;1.23;;;4.40;99.90;;;;;;5047568;28;20052;-94
2021/12/02 07:43:13;;;;;;;6.30;1.33;;;4.40;99.90;;;;;;5022764;28;20061;-93
2021/12/02 07:45:39;;;;;;;3.28;1.10;;;4.40;99.90;;;;;;5021068;28;20578;-93
2021/12/02 07:48:06;;;;;;;6.20;1.42;;;4.40;99.90;;;;;;5028200;28;20037;-93
2021/12/02 07:51:00;;;;;;;6.65;1.13;;;4.40;99.90;;;;;;5036550;28;20042;-92
2021/12/02 07:53:27;;;;;;;7.97;1.33;;;4.30;99.90;;;;;;5029115;28;20088;-93
2021/12/02 07:55:56;;;;;;;21.40;1.83;;;4.30;99.90;;;;;;5038383;28;20046;-93
2021/12/02 07:58:23;;;;;;;1.35;1.00;;;4.30;99.90;;;;;;5026136;28;20058;-92
2021/12/02 08:00:50;;;;;;;6.18;1.52;;;4.60;99.90;;;;;;5023160;28;20041;-92
2021/12/02 08:03:16;;;;;;;4.20;1.05;;;4.80;99.90;;;;;;5026520;28;20041;-92
2021/12/02 08:05:42;;;;;;;9.85;1.73;;;4.30;99.90;;;;;;5057154;28;20042;-92
2021/12/02 08:08:28;;;;;;;13.50;1.30;;;4.40;99.90;;;;;;5025792;28;20050;-92
2021/12/02 08:11:02;;;;;;;1.27;0.73;;;4.40;99.90;;;;;;5033811;28;20095;-93
2021/12/02 08:13:31;;;;;;;3.72;0.85;;;4.50;99.90;;;;;;5055043;28;20532;-92
2021/12/02 08:16:09;;;;;;;0.90;0.63;;;4.50;99.90;;;;;;5024635;28;20037;-93
2021/12/02 08:18:50;;;;;;;1.17;0.60;;;4.50;99.90;;;;;;5023015;28;20621;-92
2021/12/02 08:21:16;;;;;;;5.15;0.50;;;4.60;99.90;;;;;;5036738;28;20037;-93
2021/12/02 08:23:41;;;;;;;1.48;1.30;;;4.70;99.90;;;;;;5032636;28;20054;-92
2021/12/02 08:26:08;;;;;;;1.70;1.60;;;4.70;99.90;;;;;;5030344;28;20037;-92
2021/12/02 08:28:33;;;;;;;5.35;1.20;;;4.80;99.90;;;;;;5029791;28;20842;-92
2021/12/02 08:31:01;;;;;;;1.90;1.00;;;4.80;99.90;;;;;;5023294;28;20049;-93
2021/12/02 08:33:36;;;;;;;3.42;0.82;;;4.80;99.90;;;;;;5034628;28;20073;-93
2021/12/02 08:36:08;;;;;;;5.28;1.55;;;4.80;99.90;;;;;;5033455;28;20116;-93
2021/12/02 08:38:36;;;;;;;1.92;1.58;;;4.90;99.90;;;;;;5051590;28;20042;-93
2021/12/02 08:41:01;;;;;;;2.40;1.58;;;4.90;99.90;;;;;;5040883;28;20047;-93
2021/12/02 08:43:29;;;;;;;1.52;1.00;;;5.30;99.90;;;;;;5028038;28;20046;-93
2021/12/02 08:45:58;;;;;;;0.95;0.52;;;4.90;99.90;;;;;;5047473;28;20034;-93
2021/12/02 08:48:24;;;;;;;1.65;0.82;;;5.00;99.90;;;;;;5046339;28;20046;-92
2021/12/02 08:51:03;;;;;;;3.75;1.33;;;5.20;99.90;;;;;;5041976;28;20064;-93
2021/12/02 08:53:30;;;;;;;8.40;1.17;;;4.80;99.90;;;;;;5077430;28;20072;-92
2021/12/02 08:55:56;;;;;;;4.90;1.00;;;5.10;99.90;;;;;;5039795;28;20052;-93
2021/12/02 08:58:22;;;;;;;0.85;0.80;;;4.80;99.90;;;;;;5032563;28;20057;-92
2021/12/02 09:00:48;;;;;;;2.38;1.23;;;4.80;99.90;;;;;;5032148;28;20049;-93
2021/12/02 09:03:15;;;;;;;0.88;0.73;;;4.80;99.90;;;;;;5036374;28;20045;-93
2021/12/02 09:05:42;;;;;;;4.93;1.38;;;4.90;99.90;;;;;;5030266;28;20042;-93
2021/12/02 09:08:08;;;;;;;2.97;1.40;;;4.90;99.90;;;;;;5030152;28;20054;-93
2021/12/02 09:10:37;;;;;;;3.38;2.08;;;5.10;99.90;;;;;;5025124;28;20199;-93
2021/12/02 09:13:08;;;;;;;2.15;1.00;;;5.10;99.90;;;;;;5049583;28;20050;-92
2021/12/02 09:15:35;;;;;;;1.08;0.52;;;5.10;99.90;;;;;;5021744;28;20065;-93
2021/12/02 09:18:06;;;;;;;1.70;0.90;;;5.20;99.90;;;;;;5029230;28;20038;-92
2021/12/02 09:20:32;;;;;;;2.40;1.10;;;5.20;99.90;;;;;;5031776;28;20038;-93
2021/12/02 09:22:58;;;;;;;1.30;1.20;;;5.30;99.90;;;;;;5029317;28;20081;-92
2021/12/02 09:25:24;;;;;;;2.20;1.00;;;5.30;99.90;;;;;;5046854;28;20076;-91
2021/12/02 09:27:50;;;;;;;3.80;0.88;;;5.40;99.90;;;;;;5035067;28;20042;-93
2021/12/02 09:30:16;;;;;;;1.38;1.00;;;5.30;99.90;;;;;;5053342;28;20112;-92
2021/12/02 09:32:43;;;;;;;4.70;1.42;;;5.40;99.90;;;;;;5029293;28;20084;-93
2021/12/02 09:35:12;;;;;;;4.63;1.65;;;5.50;99.90;;;;;;5016786;28;20556;-93
2021/12/02 09:37:38;;;;;;;2.72;1.35;;;5.50;99.90;;;;;;5031363;28;20053;-92
2021/12/02 09:40:12;;;;;;;5.38;1.58;;;5.60;99.90;;;;;;5035342;28;20065;-92
2021/12/02 09:42:38;;;;;;;2.00;0.40;;;5.60;99.90;;;;;;5042400;28;20050;-93
2021/12/02 09:45:07;;;;;;;3.47;1.45;;;5.60;99.90;;;;;;5029367;28;20542;-92
2021/12/02 09:47:37;;;;;;;3.00;1.20;;;5.70;99.90;;;;;;5021636;28;20121;-93
2021/12/02 09:50:20;;;;;;;4.13;1.35;;;5.60;99.90;;;;;;5033925;28;20044;-93
2021/12/02 09:52:46;;;;;;;1.10;1.08;;;5.70;99.90;;;;;;5031729;28;20141;-93
2021/12/02 09:55:30;;;;;;;7.85;1.52;;;6.20;99.90;;;;;;5032219;28;20042;-93
2021/12/02 09:57:58;;;;;;;2.65;0.93;;;5.70;99.90;;;;;;5035224;28;20046;-93
2021/12/02 10:00:43;;;;;;;1.83;0.98;;;5.80;99.90;;;;;;5026110;28;20041;-93
2021/12/02 10:03:24;;;;;;;0.68;0.43;;;5.90;99.90;;;;;;5052017;28;20060;-93
2021/12/02 10:06:07;;;;;;;7.30;1.03;;;5.60;99.90;;;;;;5033577;28;20049;-93
2021/12/02 10:08:41;;;;;;;;;;;5.60;99.90;;;;;;5042788;28;20046;-94
2021/12/02 10:11:10;;;;;;;2.00;1.38;;;5.60;99.90;;;;;;5037142;28;19917;-96
2021/12/02 10:13:45;;;;;;;2.45;0.82;;;5.80;99.90;;;;;;5035949;28;20082;-92
2021/12/02 10:16:21;;;;;;;3.00;1.40;;;5.70;99.90;;;;;;5038392;28;20947;-91
2021/12/02 10:18:55;;;;;;;1.75;0.70;;;5.80;99.90;;;;;;5030616;28;20038;-93
2021/12/02 10:21:27;;;;;;;3.85;0.82;;;6.00;99.90;;;;;;5032999;28;20046;-92
2021/12/02 10:23:53;;;;;;;1.27;0.37;;;6.20;99.90;;;;;;5035451;28;20056;-93
2021/12/02 10:26:22;;;;;;;2.85;0.85;;;6.30;99.90;;;;;;5033596;28;20265;-94
2021/12/02 10:28:52;;;;;;;7.93;1.20;;;6.40;99.90;;;;;;5039365;28;20044;-94
2021/12/02 10:31:24;;;;;;;3.42;0.77;;;6.50;99.90;;;;;;5037438;28;20109;-96
2021/12/02 10:34:03;;;;;;;;;;;6.60;99.90;;;;;;5053302;28;20141;-95
2021/12/02 10:36:47;;;;;;;2.30;1.25;;;6.60;99.90;;;;;;5031898;28;19928;-94
2021/12/02 10:39:55;;;;;;;0.38;0.38;;;6.60;99.90;;;;;;5028646;28;20069;-95
2021/12/02 10:42:33;;;;;;;2.88;1.77;;;6.60;99.90;;;;;;5016930;28;20542;-95
2021/12/02 10:45:03;;;;;;;1.33;0.98;;;6.60;99.90;;;;;;5018716;28;20046;-95
2021/12/02 10:47:33;;;;;;;2.78;1.45;;;6.70;99.90;;;;;;5052412;28;20072;-95
2021/12/02 10:50:10;;;;;;;3.60;1.08;;;6.70;99.90;;;;;;5035050;28;20046;-96
2021/12/02 10:52:36;;;;;;;1.98;1.88;;;6.80;99.90;;;;;;5026751;28;20067;-96
2021/12/02 10:55:10;;;;;;;0.88;0.82;;;6.80;99.90;;;;;;5038631;28;20569;-95
2021/12/02 10:57:44;;;;;;;1.02;0.77;;;6.70;99.90;;;;;;5058974;28;20133;-95
2021/12/02 11:00:15;;;;;;;2.03;0.70;;;6.70;99.90;;;;;;5030091;28;20042;-96
2021/12/02 11:02:53;;;;;;;0.87;0.87;;;6.70;99.90;;;;;;5040132;28;20527;-96
2021/12/02 11:05:24;;;;;;;3.38;1.02;;;6.70;99.90;;;;;;5029892;28;20663;-95
2021/12/02 11:08:17;;;;;;;1.35;0.55;;;6.60;99.90;;;;;;5028353;28;20047;-95
2021/12/02 11:10:42;;;;;;;;;;;6.80;99.90;;;;;;5029698;28;20046;-96
2021/12/02 11:13:10;;;;;;;3.70;0.73;;;6.70;99.90;;;;;;5064521;28;20502;-95
2021/12/02 11:15:39;;;;;;;2.70;0.80;;;6.90;99.90;;;;;;5033611;28;20042;-95
2021/12/02 11:18:11;;;;;;;3.17;0.90;;;7.00;99.90;;;;;;5034946;28;20129;-95
2021/12/02 11:20:36;;;;;;;;;;;7.10;99.90;;;;;;5024524;28;20200;-95
2021/12/02 11:23:10;;;;;;;0.65;0.65;;;7.00;99.90;;;;;;5034625;28;20012;-96
2021/12/02 11:25:39;;;;;;;2.42;0.55;;;6.90;99.90;;;;;;5027659;28;20042;-96
2021/12/02 11:28:07;;;;;;;3.83;1.00;;;6.90;99.90;;;;;;5026282;28;20117;-88
2021/12/02 11:30:38;;;;;;;0.50;0.50;;;6.80;99.90;;;;;;5028091;28;20076;-90
2021/12/02 11:33:05;;;;;;;3.30;0.68;;;6.90;99.90;;;;;;5027883;28;20037;-89
2021/12/02 11:35:40;;;;;;;4.38;0.75;;;7.00;99.90;;;;;;5031407;28;20045;-92
2021/12/02 11:38:19;;;;;;;0.63;0.50;;;7.10;99.90;;;;;;5033591;28;20046;-91
2021/12/02 11:40:52;;;;;;;2.13;0.70;;;7.00;99.90;;;;;;5034001;28;20040;-92
2021/12/02 11:43:21;;;;;;;1.17;0.55;;;6.90;99.90;;;;;;5033128;28;20034;-91
2021/12/02 11:45:49;;;;;;;1.50;0.63;;;6.80;99.90;;;;;;5028248;28;20042;-90
2021/12/02 11:48:38;;;;;;;1.23;0.63;;;6.70;99.90;;;;;;5035126;28;20118;-91
2021/12/02 11:51:07;;;;;;;2.03;0.70;;;6.70;99.90;;;;;;5036432;28;20038;-92
2021/12/02 11:53:33;;;;;;;0.85;0.52;;;6.50;99.90;;;;;;5027159;28;20595;-92
2021/12/02 11:56:03;;;;;;;3.42;1.10;;;6.30;99.90;;;;;;5037696;28;20137;-91
2021/12/02 11:58:29;;;;;;;4.50;0.98;;;6.10;99.90;;;;;;5041963;28;20358;-92
2021/12/02 12:00:56;;;;;;;2.50;0.65;;;6.10;99.90;;;;;;5046244;28;20045;-90
2021/12/02 12:03:26;;;;;;;0.30;0.30;;;6.00;99.90;;;;;;5039096;28;20041;-91
2021/12/02 12:05:56;;;;;;;0.82;0.60;;;6.00;99.90;;;;;;5076673;28;20050;-91
2021/12/02 12:08:52;;;;;;;1.45;0.73;;;6.00;99.90;;;;;;5027389;28;20129;-91
2021/12/02 12:11:35;;;;;;;2.08;0.57;;;6.00;99.90;;;;;;5035108;28;20053;-91
2021/12/02 12:14:00;;;;;;;;;;;6.00;99.90;;;;;;5061962;28;20096;-92
2021/12/02 12:16:36;;;;;;;2.53;1.02;;;6.00;99.90;;;;;;5029970;28;19995;-92
2021/12/02 12:19:33;;;;;;;2.42;0.73;;;6.00;99.90;;;;;;5027331;28;20073;-92
2021/12/02 12:22:05;;;;;;;0.95;0.93;;;6.00;99.90;;;;;;5033778;28;20678;-92
2021/12/02 12:24:50;;;;;;;2.22;1.88;;;6.00;99.90;;;;;;5028455;28;20065;-92
2021/12/02 12:27:20;;;;;;;0.32;0.32;;;6.10;99.90;;;;;;5030342;28;20046;-92
2021/12/02 12:29:48;;;;;;;1.80;0.73;;;6.10;99.90;;;;;;5033198;28;20060;-91
2021/12/02 12:32:34;;;;;;;0.50;0.35;;;6.10;99.90;;;;;;5031166;28;20045;-92
2021/12/02 12:35:09;;;;;;;0.20;0.20;;;6.10;99.90;;;;;;5028503;28;20038;-90
2021/12/02 12:40:11;;;;;;;0.38;0.38;;;6.10;99.90;;;;;;5024773;28;20038;-91
2021/12/02 12:43:10;;;;;;;2.17;0.82;;;6.10;99.90;;;;;;5029580;28;20128;-91
2021/12/02 12:45:43;;;;;;;1.85;0.98;;;6.20;99.90;;;;;;5044131;28;21003;-92
2021/12/02 12:48:24;;;;;;;1.70;0.85;;;6.20;99.90;;;;;;5035800;28;20057;-91
2021/12/02 12:50:50;;;;;;;3.53;0.60;;;6.20;99.90;;;;;;5030093;28;20046;-92
2021/12/02 12:53:31;;;;;;;1.88;1.05;;;6.20;99.90;;;;;;5020774;28;20435;-91
2021/12/02 12:55:57;;;;;;;0.40;0.40;;;6.30;99.90;;;;;;5031732;28;20123;-91
2021/12/02 12:58:29;;;;;;;2.22;0.90;;;6.30;99.90;;;;;;5018679;28;20757;-92
2021/12/02 13:01:26;;;;;;;0.38;0.30;;;6.30;99.90;;;;;;5029468;28;20149;-92
2021/12/02 13:04:16;;;;;;;0.68;0.60;;;6.30;99.90;;;;;;5023460;28;20061;-92
2021/12/02 13:07:04;;;;;;;0.50;0.47;;;6.30;99.90;;;;;;5041869;28;20069;-92
2021/12/02 13:09:58;;;;;;;3.40;0.70;;;6.40;99.90;;;;;;5030027;28;20188;-92
2021/12/02 13:12:58;;;;;;;1.13;0.60;;;6.30;99.90;;;;;;5028759;28;20033;-91
2021/12/02 13:15:26;;;;;;;0.75;0.43;;;6.40;99.90;;;;;;5023568;28;20953;-92
2021/12/02 13:18:02;;;;;;;0.52;0.52;;;6.30;99.90;;;;;;5032811;28;20167;-91
2021/12/02 13:20:33;;;;;;;0.80;0.70;;;6.40;99.90;;;;;;5023763;28;20049;-91
2021/12/02 13:23:17;;;;;;;0.30;0.30;;;6.60;99.90;;;;;;5023905;28;20046;-91
2021/12/02 13:25:46;;;;;;;0.38;0.38;;;6.40;99.90;;;;;;5028002;28;20041;-91
2021/12/02 13:28:21;;;;;;;0.50;0.50;;;6.50;99.90;;;;;;5025624;28;20046;-91
2021/12/02 13:30:49;;;;;;;0.30;0.30;;;6.50;99.90;;;;;;5026619;28;20049;-90
2021/12/02 13:33:15;;;;;;;0.30;0.30;;;6.40;99.90;;;;;;5030781;28;20034;-90
2021/12/02 13:35:41;;;;;;;0.55;0.55;;;6.40;99.90;;;;;;5029693;28;20048;-90
2021/12/02 13:38:08;;;;;;;0.43;0.40;;;6.40;99.90;;;;;;5032653;28;20041;-91
2021/12/02 13:40:40;;;;;;;5.22;0.77;;;6.40;99.90;;;;;;5029930;28;20046;-91
2021/12/02 13:43:07;;;;;;;0.85;0.40;;;6.40;99.90;;;;;;5029067;28;20042;-90
2021/12/02 13:45:33;;;;;;;0.30;0.30;;;6.40;99.90;;;;;;5026083;28;20053;-90
2021/12/02 13:48:10;;;;;;;0.47;0.47;;;6.60;99.90;;;;;;5032746;28;20045;-91
2021/12/02 13:50:36;;;;;;;0.90;0.77;;;6.40;99.90;;;;;;5043715;28;20054;-91
2021/12/02 13:53:02;;;;;;;2.03;0.73;;;6.50;99.90;;;;;;5031302;28;20031;-92